sensor_id;sensor_type;location;lat;lon;timestamp;pressure;altitude;pressure_sealevel;temperature;humidity
61740;BME280;47645;45.288;12.038;2022-10-16T00:00:20;1019.8608027241881;;;17.3689453125;89.47457407101939
61740;BME280;47645;45.288;12.038;2022-10-16T00:10:21;1019.8590979364135;;;17.312890625;86.03289729422573
61740;BME280;47645;45.288;12.038;2022-10-16T00:20:21;1019.833299731351;;;17.333203125;84.09498023598195
61740;BME280;47645;45.288;12.038;2022-10-16T00:30:24;1019.8903013035289;;;17.409765625;80.61086318976271
61740;BME280;47645;45.288;12.038;2022-10-16T00:40:23;1019.9116464827559;;;17.4810546875;83.64209963416494
61740;BME280;47645;45.288;12.038;2022-10-16T00:50:28;1019.9422977354174;;;17.3740234375;81.19298899977812
61740;BME280;47645;45.288;12.038;2022-10-16T01:00:26;1019.9413710754812;;;17.23125;80.90819361340176
61740;BME280;47645;45.288;12.038;2022-10-16T01:10:31;1019.9407629350655;;;17.399609375;81.89341995888965
61740;BME280;47645;45.288;12.038;2022-10-16T01:20:30;1019.9271572490811;;;17.3435546875;77.1092377704485
61740;BME280;47645;45.288;12.038;2022-10-16T01:30:30;1019.992769769408;;;17.419921875;77.6906642580788
61740;BME280;47645;45.288;12.038;2022-10-16T01:40:30;1020.0190287221573;;;17.3689453125;79.45742686594441
61740;BME280;47645;45.288;12.038;2022-10-16T01:50:31;1020.0081955775962;;;17.3740234375;80.53333435526734
61740;BME280;47645;45.288;12.038;2022-10-16T02:00:31;1020.0268004785878;;;17.43515625;84.80274002290768
61740;BME280;47645;45.288;12.038;2022-10-16T02:10:32;1020.078794712853;;;17.409765625;85.43493994273503
61740;BME280;47645;45.288;12.038;2022-10-16T02:20:36;1020.0964712396956;;;17.430078125;82.96645491522563
61740;BME280;47645;45.288;12.038;2022-10-16T02:30:36;1020.1411979227535;;;17.31796875;83.10277849953228
61740;BME280;47645;45.288;12.038;2022-10-16T02:40:34;1020.1916413360536;;;17.41484375;80.61602452397267
61740;BME280;47645;45.288;12.038;2022-10-16T02:50:35;1020.2740947387194;;;17.4861328125;83.91850387480933
61740;BME280;47645;45.288;12.038;2022-10-16T03:00:36;1020.273796153103;;;17.5421875;83.62056381578725
61740;BME280;47645;45.288;12.038;2022-10-16T03:10:37;1020.2562698489518;;;17.61875;90.80700929497941
61740;BME280;47645;45.288;12.038;2022-10-16T03:20:38;1020.2778130990996;;;17.7359375;93.05047807442946
61740;BME280;47645;45.288;12.038;2022-10-16T03:30:40;1020.2727148201534;;;17.7666015625;93.66711978578836
61740;BME280;47645;45.288;12.038;2022-10-16T03:40:40;1020.226755075285;;;17.75625;94.46215923272439
61740;BME280;47645;45.288;12.038;2022-10-16T03:50:41;1020.2406752719548;;;17.7359375;95.5501382504361
61740;BME280;47645;45.288;12.038;2022-10-16T04:00:42;1020.2532703063553;;;17.751171875;97.82064097912553
61740;BME280;47645;45.288;12.038;2022-10-16T04:10:42;1020.2744825036881;;;17.7666015625;98.42648441355729
61740;BME280;47645;45.288;12.038;2022-10-16T04:20:43;1020.3192245133396;;;17.7359375;98.70846774967258
61740;BME280;47645;45.288;12.038;2022-10-16T04:30:44;1020.3983286982412;;;17.6951171875;99.19153715443879
61740;BME280;47645;45.288;12.038;2022-10-16T04:40:45;1020.4665983079259;;;17.8072265625;98.1962974218605
61740;BME280;47645;45.288;12.038;2022-10-16T04:50:46;1020.4983014208467;;;17.7359375;98.65306233485951
61740;BME280;47645;45.288;12.038;2022-10-16T05:00:47;1020.5487083722325;;;17.5779296875;96.20347653036292
61740;BME280;47645;45.288;12.038;2022-10-16T05:10:48;1020.5950600710277;;;17.654296875;98.30009342394403
61740;BME280;47645;45.288;12.038;2022-10-16T05:20:48;1020.5940641563092;;;17.6697265625;98.53970746398801
61740;BME280;47645;45.288;12.038;2022-10-16T05:30:50;1020.7017211577395;;;17.537109375;98.5410695041673
61740;BME280;47645;45.288;12.038;2022-10-16T05:40:51;1020.9144404259921;;;17.399609375;97.60617143271902
61740;BME280;47645;45.288;12.038;2022-10-16T05:51:00;1021.0090430050988;;;17.33828125;97.55193788827626
61740;BME280;47645;45.288;12.038;2022-10-16T06:00:54;1021.0339637142184;;;17.2771484375;97.12354851667882
61740;BME280;47645;45.288;12.038;2022-10-16T06:11:00;1021.1797424674537;;;17.2416015625;95.64451377708062
61740;BME280;47645;45.288;12.038;2022-10-16T06:20:54;1021.3405730703153;;;17.3078125;94.63212646328901
61740;BME280;47645;45.288;12.038;2022-10-16T06:30:59;1021.6101828002201;;;17.216015625;96.46474592745334
61740;BME280;47645;45.288;12.038;2022-10-16T06:40:56;1021.6204478023128;;;17.4505859375;95.76578666792507
61740;BME280;47645;45.288;12.038;2022-10-16T06:50:58;1021.8511704161522;;;17.31796875;96.18267461801898
61740;BME280;47645;45.288;12.038;2022-10-16T07:00:57;1022.055731827833;;;17.516796875;94.8140457589939
61740;BME280;47645;45.288;12.038;2022-10-16T07:11:00;1022.1337354284784;;;17.62890625;94.00842372077476
61740;BME280;47645;45.288;12.038;2022-10-16T07:21:05;1022.1736723145868;;;17.955078125;92.36186485146271
61740;BME280;47645;45.288;12.038;2022-10-16T07:31:05;1022.3247546553886;;;18.0212890625;90.52680044471519
61740;BME280;47645;45.288;12.038;2022-10-16T07:41:04;1022.5034181000083;;;18.1640625;90.14306242382337
61740;BME280;47645;45.288;12.038;2022-10-16T07:51:07;1022.5661782875994;;;18.4341796875;86.83368678222425
61740;BME280;47645;45.288;12.038;2022-10-16T08:01:04;1022.6377686410742;;;18.9236328125;85.73269104887333
61740;BME280;47645;45.288;12.038;2022-10-16T08:11:06;1022.7931754847897;;;19.0560546875;84.57832292494103
61740;BME280;47645;45.288;12.038;2022-10-16T08:21:07;1022.6934508388777;;;19.6421875;82.02362259737194
61740;BME280;47645;45.288;12.038;2022-10-16T08:31:08;1022.7660530995257;;;20.151953125;79.51972425919993
61740;BME280;47645;45.288;12.038;2022-10-16T08:41:24;1022.8326393059673;;;20.549609375;78.10678121500291
61740;BME280;47645;45.288;12.038;2022-10-16T08:51:18;1022.9825841889128;;;20.7025390625;78.09235569210053
61740;BME280;47645;45.288;12.038;2022-10-16T09:01:12;1023.0603484958965;;;21.1560546875;75.62220269541713
61740;BME280;47645;45.288;12.038;2022-10-16T09:11:14;1023.098057155537;;;21.4875;74.74861901383883
61740;BME280;47645;45.288;12.038;2022-10-16T09:21:15;1023.1055524187568;;;22.0634765625;72.63632696446544
61740;BME280;47645;45.288;12.038;2022-10-16T09:31:17;1023.0208612082785;;;22.201171875;72.64557718834608
61740;BME280;47645;45.288;12.038;2022-10-16T09:41:17;1022.950928219251;;;22.4865234375;72.41562710520759
61740;BME280;47645;45.288;12.038;2022-10-16T09:51:19;1022.9869414852877;;;22.74140625;71.96510548509939
61740;BME280;47645;45.288;12.038;2022-10-16T10:01:15;1022.9140664936883;;;23.9138671875;68.89354647268222
61740;BME280;47645;45.288;12.038;2022-10-16T10:11:16;1022.8268110579226;;;24.4490234375;65.89194233218372
61740;BME280;47645;45.288;12.038;2022-10-16T10:21:19;1022.7760752613722;;;24.3369140625;66.65588127790173
61740;BME280;47645;45.288;12.038;2022-10-16T10:31:22;1022.7542851905578;;;25.126953125;65.12397210100345
61740;BME280;47645;45.288;12.038;2022-10-16T10:41:33;1022.7512263679187;;;26.0802734375;61.166967296552016
61740;BME280;47645;45.288;12.038;2022-10-16T10:51:30;1022.6681396890351;;;25.6978515625;59.867530183480405
61740;BME280;47645;45.288;12.038;2022-10-16T11:01:27;1022.5455360306669;;;26.477734375;57.22531114982938
61740;BME280;47645;45.288;12.038;2022-10-16T11:11:27;1022.5477119193191;;;27.0130859375;56.13132658921869
61740;BME280;47645;45.288;12.038;2022-10-16T11:21:28;1022.6318408564638;;;26.6103515625;59.10127834364551
61740;BME280;47645;45.288;12.038;2022-10-16T11:31:32;1022.6420741749571;;;26.681640625;55.6798997960962
61740;BME280;47645;45.288;12.038;2022-10-16T11:41:32;1022.6492885053626;;;26.034375;60.18256629898111
61740;BME280;47645;45.288;12.038;2022-10-16T11:51:35;1022.7032531296522;;;26.4625;58.279331893976384
61740;BME280;47645;45.288;12.038;2022-10-16T12:01:33;1022.779110838253;;;25.51953125;59.40954003569575
61740;BME280;47645;45.288;12.038;2022-10-16T12:11:36;1022.7663326469067;;;25.845703125;60.59003620935112
61740;BME280;47645;45.288;12.038;2022-10-16T12:21:33;1022.8063656281997;;;24.8517578125;64.05534592975809
61740;BME280;47645;45.288;12.038;2022-10-16T12:31:37;1022.7827366928317;;;25.1984375;62.95537590563231
61740;BME280;47645;45.288;12.038;2022-10-16T12:41:38;1022.8216181885967;;;25.94765625;60.91764211906097
61740;BME280;47645;45.288;12.038;2022-10-16T12:51:38;1022.7482828340098;;;25.952734375;59.54262205521832
61740;BME280;47645;45.288;12.038;2022-10-16T13:01:52;1022.7203479291587;;;25.932421875;60.923420101330244
61740;BME280;47645;45.288;12.038;2022-10-16T13:11:55;1022.6894453967338;;;25.8099609375;60.69222764152644
61740;BME280;47645;45.288;12.038;2022-10-16T13:21:47;1022.7799720197254;;;25.65703125;61.23980566567233
61740;BME280;47645;45.288;12.038;2022-10-16T13:31:44;1022.846222607229;;;25.5654296875;59.69999662396608
61740;BME280;47645;45.288;12.038;2022-10-16T13:41:45;1022.949301080389;;;25.631640625;61.56218373004525
61740;BME280;47645;45.288;12.038;2022-10-16T13:51:54;1022.9723301882981;;;25.1474609375;62.84283016620764
61740;BME280;47645;45.288;12.038;2022-10-16T14:01:47;1022.9314679792892;;;25.534765625;61.99080348906365
61740;BME280;47645;45.288;12.038;2022-10-16T14:11:50;1022.9616483484753;;;25.524609375;61.447584553527356
61740;BME280;47645;45.288;12.038;2022-10-16T14:21:50;1023.0293835216819;;;25.815234375;58.85556157514962
61740;BME280;47645;45.288;12.038;2022-10-16T14:31:56;1023.0189934145254;;;25.7029296875;58.86181748580113
61740;BME280;47645;45.288;12.038;2022-10-16T14:41:56;1023.0245620777555;;;24.5712890625;64.2196693335783
61740;BME280;47645;45.288;12.038;2022-10-16T14:51:54;1023.0238727079843;;;24.923046875;61.38001262223299
61740;BME280;47645;45.288;12.038;2022-10-16T15:01:55;1023.017674334465;;;24.596875;63.02345681650894
61740;BME280;47645;45.288;12.038;2022-10-16T15:11:56;1023.0848887636274;;;24.48984375;62.706775416448146
61740;BME280;47645;45.288;12.038;2022-10-16T15:21:57;1023.1297163831933;;;23.8578125;64.54978145063558
61740;BME280;47645;45.288;12.038;2022-10-16T15:31:59;1023.2329820833048;;;23.69453125;64.59789762675737
61740;BME280;47645;45.288;12.038;2022-10-16T15:42:00;1023.1944455143054;;;23.0830078125;66.42221225174491
61740;BME280;47645;45.288;12.038;2022-10-16T15:52:03;1023.2682015554329;;;22.823046875;67.57576850877459
61740;BME280;47645;45.288;12.038;2022-10-16T16:02:03;1023.3736476642184;;;22.0888671875;72.76412610493827
61740;BME280;47645;45.288;12.038;2022-10-16T16:12:04;1023.427709912839;;;22.134765625;69.88827645997407
61740;BME280;47645;45.288;12.038;2022-10-16T16:22:05;1023.4619454516296;;;21.8646484375;73.06687910116682
61740;BME280;47645;45.288;12.038;2022-10-16T16:32:07;1023.5352371034297;;;21.721875;70.80859746605701
61740;BME280;47645;45.288;12.038;2022-10-16T16:42:08;1023.6296784666165;;;21.4365234375;72.79512972226772
61740;BME280;47645;45.288;12.038;2022-10-16T16:52:09;1023.6773564300486;;;21.298828125;72.0221551427185
61740;BME280;47645;45.288;12.038;2022-10-16T17:02:10;1023.841325154108;;;21.0439453125;72.3118043987842
61740;BME280;47645;45.288;12.038;2022-10-16T17:12:11;1023.9437309616526;;;20.87578125;73.01084094345583
61740;BME280;47645;45.288;12.038;2022-10-16T17:22:12;1024.0797313106873;;;20.671875;73.1944598407228
61740;BME280;47645;45.288;12.038;2022-10-16T17:32:14;1024.1692877810117;;;20.442578125;73.88233405696519
61740;BME280;47645;45.288;12.038;2022-10-16T17:42:14;1024.4099483631444;;;20.25390625;74.44712455085184
61740;BME280;47645;45.288;12.038;2022-10-16T17:52:16;1024.489392648889;;;20.141796875;74.67696730732268
61740;BME280;47645;45.288;12.038;2022-10-16T18:02:17;1024.584042920064;;;20.0091796875;74.57691502966752
61740;BME280;47645;45.288;12.038;2022-10-16T18:12:18;1024.6731559592317;;;19.7595703125;75.43611941349047
61740;BME280;47645;45.288;12.038;2022-10-16T18:22:22;1024.7443458294329;;;19.6830078125;75.3517908021097
61740;BME280;47645;45.288;12.038;2022-10-16T18:32:23;1024.755763036919;;;19.5861328125;75.10499558409555
61740;BME280;47645;45.288;12.038;2022-10-16T18:42:22;1024.8209835786868;;;19.41796875;75.46013090054235
61740;BME280;47645;45.288;12.038;2022-10-16T18:52:25;1025.016799248724;;;19.285546875;75.64298494839139
61740;BME280;47645;45.288;12.038;2022-10-16T19:02:23;1025.1026738706273;;;19.1580078125;76.05548305229811
61740;BME280;47645;45.288;12.038;2022-10-16T19:12:24;1025.1811037383175;;;19.0509765625;76.21094046951453
61740;BME280;47645;45.288;12.038;2022-10-16T19:22:40;1025.270907880274;;;18.9591796875;75.95506842927968
61740;BME280;47645;45.288;12.038;2022-10-16T19:32:27;1025.3739313230344;;;18.8318359375;75.9572084788702
61740;BME280;47645;45.288;12.038;2022-10-16T19:42:27;1025.51447035648;;;18.765625;75.92829224873194
61740;BME280;47645;45.288;12.038;2022-10-16T19:52:28;1025.6341973873873;;;18.683984375;75.85412305110872
61740;BME280;47645;45.288;12.038;2022-10-16T20:02:29;1025.6582430964843;;;18.5208984375;76.18543001092367
61740;BME280;47645;45.288;12.038;2022-10-16T20:12:31;1025.7219039528127;;;18.4341796875;76.32048832248454
61740;BME280;47645;45.288;12.038;2022-10-16T20:22:33;1025.740999924349;;;18.373046875;76.02010605415147
61740;BME280;47645;45.288;12.038;2022-10-16T20:32:34;1025.891141490697;;;18.1947265625;76.33888438711662
61740;BME280;47645;45.288;12.038;2022-10-16T20:42:35;1025.989117432498;;;18.0826171875;76.68073084739328
61740;BME280;47645;45.288;12.038;2022-10-16T20:52:36;1026.0888491768053;;;18.0212890625;76.45441049615215
61740;BME280;47645;45.288;12.038;2022-10-16T21:02:35;1026.1740047190672;;;17.924609375;76.46933260097971
61740;BME280;47645;45.288;12.038;2022-10-16T21:12:36;1026.233710687835;;;17.86328125;76.62927742156096
61740;BME280;47645;45.288;12.038;2022-10-16T21:22:37;1026.3216780140804;;;17.7970703125;76.24324599817983
61740;BME280;47645;45.288;12.038;2022-10-16T21:32:39;1026.3761907754129;;;17.6951171875;76.52353420529998
61740;BME280;47645;45.288;12.038;2022-10-16T21:42:39;1026.4089138039762;;;17.526953125;77.01163408554977
61740;BME280;47645;45.288;12.038;2022-10-16T21:52:41;1026.392421756317;;;17.4962890625;76.71041129925993
61740;BME280;47645;45.288;12.038;2022-10-16T22:02:42;1026.4726626293054;;;17.4810546875;76.52249306917689
61740;BME280;47645;45.288;12.038;2022-10-16T22:12:42;1026.4887966149165;;;17.399609375;76.50434858001178
61740;BME280;47645;45.288;12.038;2022-10-16T22:22:43;1026.607591539223;;;17.3486328125;77.42595335335909
61740;BME280;47645;45.288;12.038;2022-10-16T22:32:45;1026.674681887817;;;17.20078125;76.98817888961551
61740;BME280;47645;45.288;12.038;2022-10-16T22:42:46;1026.80654228961;;;16.996875;81.07141323110768
61740;BME280;47645;45.288;12.038;2022-10-16T22:52:47;1026.808949575448;;;16.4921875;96.80285279896556
61740;BME280;47645;45.288;12.038;2022-10-16T23:02:48;1026.8674851394926;;;16.48203125;93.48853122283613
61740;BME280;47645;45.288;12.038;2022-10-16T23:12:48;1026.8743024235646;;;16.5228515625;98.15455200465006
61740;BME280;47645;45.288;12.038;2022-10-16T23:22:50;1026.9079840250813;;;16.4462890625;100
61740;BME280;47645;45.288;12.038;2022-10-16T23:32:51;1026.860237393779;;;16.038671875;91.86808802320866
61740;BME280;47645;45.288;12.038;2022-10-16T23:42:51;1026.892134835503;;;16.3087890625;90.44675957704689
61740;BME280;47645;45.288;12.038;2022-10-16T23:52:52;1026.8895646462959;;;16.390234375;100
